Search for airport 
image banner adimage banner adimage banner ad
image banner ad

PN12 - Sweet Valley

Located in Sweet Valley, United States

ICAO - PN12, IATA -

Data provided by Airmate  

General information

Coordinates: N41°16'50" W78°8'35"
Elevation is 1200 feet MSL.
Magnetic variation is -10° East
View others Airports in Pennsylvania

Operational data

Special qualification required
Current time UTC:
Current local time:
Weather at : KOYM - St Marys Muni ( 33 km )
METAR: KOYM 071317Z AUTO 11008KT 10SM BKN050 OVC065 08/M01 A2990 RMK AO2
View NOTAMs / SUP AIP / TFR affecting this airport [VIEW]
Communications frequencies: [VIEW]

Runways:

RWY identifierQFULength (ft)Width (ft)SurfaceLDA (ft)
081450100GRASS
261450100GRASS

Airport contact information

Address: Sweet Valley United States

Satellite view of PN12